sensor_id;sensor_type;location;lat;lon;timestamp;temperature;humidity
21298;DHT22;10808;48.010;11.326;2022-07-30T00:01:37;19.10;99.90
21298;DHT22;10808;48.010;11.326;2022-07-30T00:04:03;19.10;99.90
21298;DHT22;10808;48.010;11.326;2022-07-30T00:06:29;19.10;99.90
21298;DHT22;10808;48.010;11.326;2022-07-30T00:08:56;19.10;99.90
21298;DHT22;10808;48.010;11.326;2022-07-30T00:11:22;19.10;99.90
21298;DHT22;10808;48.010;11.326;2022-07-30T00:13:48;19.00;99.90
21298;DHT22;10808;48.010;11.326;2022-07-30T00:16:14;19.00;99.90
21298;DHT22;10808;48.010;11.326;2022-07-30T00:18:40;19.00;99.90
21298;DHT22;10808;48.010;11.326;2022-07-30T00:21:06;19.00;99.90
21298;DHT22;10808;48.010;11.326;2022-07-30T00:23:34;19.00;99.90
21298;DHT22;10808;48.010;11.326;2022-07-30T00:26:00;18.90;99.90
21298;DHT22;10808;48.010;11.326;2022-07-30T00:28:26;18.90;99.90
21298;DHT22;10808;48.010;11.326;2022-07-30T00:30:52;18.90;99.90
21298;DHT22;10808;48.010;11.326;2022-07-30T00:33:18;18.90;99.90
21298;DHT22;10808;48.010;11.326;2022-07-30T00:35:44;18.90;99.90
21298;DHT22;10808;48.010;11.326;2022-07-30T00:38:10;18.80;99.90
21298;DHT22;10808;48.010;11.326;2022-07-30T00:40:36;18.80;99.90
21298;DHT22;10808;48.010;11.326;2022-07-30T00:43:03;18.80;99.90
21298;DHT22;10808;48.010;11.326;2022-07-30T00:45:29;18.70;99.90
21298;DHT22;10808;48.010;11.326;2022-07-30T00:47:55;18.70;99.90
21298;DHT22;10808;48.010;11.326;2022-07-30T00:50:21;18.70;99.90
21298;DHT22;10808;48.010;11.326;2022-07-30T00:52:47;18.70;99.90
21298;DHT22;10808;48.010;11.326;2022-07-30T00:55:14;18.70;99.90
21298;DHT22;10808;48.010;11.326;2022-07-30T00:57:41;18.70;99.90
21298;DHT22;10808;48.010;11.326;2022-07-30T01:00:10;18.70;99.90
21298;DHT22;10808;48.010;11.326;2022-07-30T01:02:37;18.70;99.90
21298;DHT22;10808;48.010;11.326;2022-07-30T01:05:03;18.70;99.90
21298;DHT22;10808;48.010;11.326;2022-07-30T01:07:29;18.70;99.90
21298;DHT22;10808;48.010;11.326;2022-07-30T01:09:55;18.70;99.90
21298;DHT22;10808;48.010;11.326;2022-07-30T01:12:24;18.60;99.90
21298;DHT22;10808;48.010;11.326;2022-07-30T01:14:50;18.60;99.90
21298;DHT22;10808;48.010;11.326;2022-07-30T01:17:17;18.60;99.90
21298;DHT22;10808;48.010;11.326;2022-07-30T01:19:44;18.50;99.90
21298;DHT22;10808;48.010;11.326;2022-07-30T01:22:34;18.50;99.90
21298;DHT22;10808;48.010;11.326;2022-07-30T01:28:12;18.50;99.90
21298;DHT22;10808;48.010;11.326;2022-07-30T01:30:40;18.50;99.90
21298;DHT22;10808;48.010;11.326;2022-07-30T01:33:10;18.40;99.90
21298;DHT22;10808;48.010;11.326;2022-07-30T01:35:38;18.30;99.90
21298;DHT22;10808;48.010;11.326;2022-07-30T01:38:06;18.20;99.90
21298;DHT22;10808;48.010;11.326;2022-07-30T01:40:33;18.30;99.90
21298;DHT22;10808;48.010;11.326;2022-07-30T01:43:00;18.20;99.90
21298;DHT22;10808;48.010;11.326;2022-07-30T01:45:29;18.20;99.90
21298;DHT22;10808;48.010;11.326;2022-07-30T01:47:58;18.20;99.90
21298;DHT22;10808;48.010;11.326;2022-07-30T01:50:27;18.20;99.90
21298;DHT22;10808;48.010;11.326;2022-07-30T01:52:56;18.10;99.90
21298;DHT22;10808;48.010;11.326;2022-07-30T01:55:41;18.00;99.90
21298;DHT22;10808;48.010;11.326;2022-07-30T01:58:09;18.00;99.90
21298;DHT22;10808;48.010;11.326;2022-07-30T02:00:38;18.00;99.90
21298;DHT22;10808;48.010;11.326;2022-07-30T02:03:05;18.00;99.90
21298;DHT22;10808;48.010;11.326;2022-07-30T02:05:35;17.90;99.90
21298;DHT22;10808;48.010;11.326;2022-07-30T02:08:10;17.90;99.90
21298;DHT22;10808;48.010;11.326;2022-07-30T02:10:44;17.90;99.90
21298;DHT22;10808;48.010;11.326;2022-07-30T02:13:12;17.90;99.90
21298;DHT22;10808;48.010;11.326;2022-07-30T02:15:48;17.90;99.90
21298;DHT22;10808;48.010;11.326;2022-07-30T02:18:20;17.80;99.90
21298;DHT22;10808;48.010;11.326;2022-07-30T02:20:52;17.80;99.90
21298;DHT22;10808;48.010;11.326;2022-07-30T02:23:20;17.80;99.90
21298;DHT22;10808;48.010;11.326;2022-07-30T02:25:49;17.70;99.90
21298;DHT22;10808;48.010;11.326;2022-07-30T02:28:17;17.70;99.90
21298;DHT22;10808;48.010;11.326;2022-07-30T02:30:52;17.80;99.90
21298;DHT22;10808;48.010;11.326;2022-07-30T02:33:25;17.70;99.90
21298;DHT22;10808;48.010;11.326;2022-07-30T02:35:53;17.70;99.90
21298;DHT22;10808;48.010;11.326;2022-07-30T02:38:19;17.60;99.90
21298;DHT22;10808;48.010;11.326;2022-07-30T02:40:46;17.60;99.90
21298;DHT22;10808;48.010;11.326;2022-07-30T02:43:16;17.60;99.90
21298;DHT22;10808;48.010;11.326;2022-07-30T02:45:45;17.60;99.90
21298;DHT22;10808;48.010;11.326;2022-07-30T02:48:12;17.60;99.90
21298;DHT22;10808;48.010;11.326;2022-07-30T02:50:39;17.60;99.90
21298;DHT22;10808;48.010;11.326;2022-07-30T02:53:08;17.60;99.90
21298;DHT22;10808;48.010;11.326;2022-07-30T02:55:37;17.60;99.90
21298;DHT22;10808;48.010;11.326;2022-07-30T02:58:05;17.60;99.90
21298;DHT22;10808;48.010;11.326;2022-07-30T03:00:33;17.60;99.90
21298;DHT22;10808;48.010;11.326;2022-07-30T03:02:59;17.60;99.90
21298;DHT22;10808;48.010;11.326;2022-07-30T03:05:27;17.60;99.90
21298;DHT22;10808;48.010;11.326;2022-07-30T03:07:54;17.60;99.90
21298;DHT22;10808;48.010;11.326;2022-07-30T03:10:21;17.60;99.90
21298;DHT22;10808;48.010;11.326;2022-07-30T03:12:49;17.60;99.90
21298;DHT22;10808;48.010;11.326;2022-07-30T03:15:15;17.60;99.90
21298;DHT22;10808;48.010;11.326;2022-07-30T03:17:44;17.70;99.90
21298;DHT22;10808;48.010;11.326;2022-07-30T03:20:12;17.60;99.90
21298;DHT22;10808;48.010;11.326;2022-07-30T03:22:47;17.60;99.90
21298;DHT22;10808;48.010;11.326;2022-07-30T03:25:17;17.60;99.90
21298;DHT22;10808;48.010;11.326;2022-07-30T03:27:45;17.60;99.90
21298;DHT22;10808;48.010;11.326;2022-07-30T03:30:13;17.60;99.90
21298;DHT22;10808;48.010;11.326;2022-07-30T03:32:39;17.60;99.90
21298;DHT22;10808;48.010;11.326;2022-07-30T03:35:07;17.60;99.90
21298;DHT22;10808;48.010;11.326;2022-07-30T03:37:35;17.60;99.90
21298;DHT22;10808;48.010;11.326;2022-07-30T03:40:09;17.70;99.90
21298;DHT22;10808;48.010;11.326;2022-07-30T03:42:36;17.70;99.90
21298;DHT22;10808;48.010;11.326;2022-07-30T03:45:11;17.70;99.90
21298;DHT22;10808;48.010;11.326;2022-07-30T03:47:41;17.70;99.90
21298;DHT22;10808;48.010;11.326;2022-07-30T03:50:16;17.70;99.90
21298;DHT22;10808;48.010;11.326;2022-07-30T03:52:50;17.70;99.90
21298;DHT22;10808;48.010;11.326;2022-07-30T03:55:19;17.70;99.90
21298;DHT22;10808;48.010;11.326;2022-07-30T03:57:46;17.70;99.90
21298;DHT22;10808;48.010;11.326;2022-07-30T04:00:14;17.70;99.90
21298;DHT22;10808;48.010;11.326;2022-07-30T04:02:41;17.60;99.90
21298;DHT22;10808;48.010;11.326;2022-07-30T04:05:08;17.60;99.90
21298;DHT22;10808;48.010;11.326;2022-07-30T04:07:34;17.60;99.90
21298;DHT22;10808;48.010;11.326;2022-07-30T04:10:00;17.60;99.90
21298;DHT22;10808;48.010;11.326;2022-07-30T04:12:26;17.60;99.90
21298;DHT22;10808;48.010;11.326;2022-07-30T04:14:52;17.60;99.90
21298;DHT22;10808;48.010;11.326;2022-07-30T04:17:23;17.60;99.90
21298;DHT22;10808;48.010;11.326;2022-07-30T04:19:53;17.60;99.90
21298;DHT22;10808;48.010;11.326;2022-07-30T04:22:26;17.70;99.90
21298;DHT22;10808;48.010;11.326;2022-07-30T04:24:53;17.70;99.90
21298;DHT22;10808;48.010;11.326;2022-07-30T04:27:22;17.70;99.90
21298;DHT22;10808;48.010;11.326;2022-07-30T04:29:51;17.70;99.90
21298;DHT22;10808;48.010;11.326;2022-07-30T04:32:17;17.70;99.90
21298;DHT22;10808;48.010;11.326;2022-07-30T04:34:48;17.70;99.90
21298;DHT22;10808;48.010;11.326;2022-07-30T04:37:16;17.70;99.90
21298;DHT22;10808;48.010;11.326;2022-07-30T04:39:43;17.80;99.90
21298;DHT22;10808;48.010;11.326;2022-07-30T04:42:10;17.80;99.90
21298;DHT22;10808;48.010;11.326;2022-07-30T04:44:36;17.80;99.90
21298;DHT22;10808;48.010;11.326;2022-07-30T04:47:03;17.80;99.90
21298;DHT22;10808;48.010;11.326;2022-07-30T04:49:30;17.90;99.90
21298;DHT22;10808;48.010;11.326;2022-07-30T04:51:57;17.90;99.90
21298;DHT22;10808;48.010;11.326;2022-07-30T04:54:24;17.90;99.90
21298;DHT22;10808;48.010;11.326;2022-07-30T04:56:51;17.90;99.90
21298;DHT22;10808;48.010;11.326;2022-07-30T04:59:18;18.00;99.90
21298;DHT22;10808;48.010;11.326;2022-07-30T05:01:47;18.00;99.90
21298;DHT22;10808;48.010;11.326;2022-07-30T05:04:15;18.00;99.90
21298;DHT22;10808;48.010;11.326;2022-07-30T05:06:42;18.00;99.90
21298;DHT22;10808;48.010;11.326;2022-07-30T05:09:08;18.00;99.90
21298;DHT22;10808;48.010;11.326;2022-07-30T05:11:35;18.00;99.90
21298;DHT22;10808;48.010;11.326;2022-07-30T05:14:01;18.00;99.90
21298;DHT22;10808;48.010;11.326;2022-07-30T05:16:27;18.00;99.90
21298;DHT22;10808;48.010;11.326;2022-07-30T05:18:54;18.10;99.90
21298;DHT22;10808;48.010;11.326;2022-07-30T05:21:20;18.10;99.90
21298;DHT22;10808;48.010;11.326;2022-07-30T05:23:46;18.10;99.90
21298;DHT22;10808;48.010;11.326;2022-07-30T05:26:12;18.10;99.90
21298;DHT22;10808;48.010;11.326;2022-07-30T05:28:38;18.10;99.90
21298;DHT22;10808;48.010;11.326;2022-07-30T05:31:04;18.10;99.90
21298;DHT22;10808;48.010;11.326;2022-07-30T05:33:30;18.20;99.90
21298;DHT22;10808;48.010;11.326;2022-07-30T05:35:56;18.20;99.90
21298;DHT22;10808;48.010;11.326;2022-07-30T05:38:24;18.20;99.90
21298;DHT22;10808;48.010;11.326;2022-07-30T05:40:50;18.20;99.90
21298;DHT22;10808;48.010;11.326;2022-07-30T05:43:17;18.20;99.90
21298;DHT22;10808;48.010;11.326;2022-07-30T05:45:43;18.20;99.90
21298;DHT22;10808;48.010;11.326;2022-07-30T05:48:09;18.30;99.90
21298;DHT22;10808;48.010;11.326;2022-07-30T05:50:35;18.30;99.90
21298;DHT22;10808;48.010;11.326;2022-07-30T05:53:01;18.30;99.90
21298;DHT22;10808;48.010;11.326;2022-07-30T05:55:27;18.30;99.90
21298;DHT22;10808;48.010;11.326;2022-07-30T05:57:53;18.30;99.90
21298;DHT22;10808;48.010;11.326;2022-07-30T06:00:19;18.40;99.90
21298;DHT22;10808;48.010;11.326;2022-07-30T06:02:45;18.40;99.90
21298;DHT22;10808;48.010;11.326;2022-07-30T06:05:11;18.50;99.90
21298;DHT22;10808;48.010;11.326;2022-07-30T06:07:37;18.60;99.90
21298;DHT22;10808;48.010;11.326;2022-07-30T06:10:04;18.70;99.90
21298;DHT22;10808;48.010;11.326;2022-07-30T06:12:30;18.70;99.90
21298;DHT22;10808;48.010;11.326;2022-07-30T06:14:57;18.60;99.90
21298;DHT22;10808;48.010;11.326;2022-07-30T06:17:23;18.60;99.90
21298;DHT22;10808;48.010;11.326;2022-07-30T06:19:52;18.70;99.90
21298;DHT22;10808;48.010;11.326;2022-07-30T06:22:18;18.70;99.90
21298;DHT22;10808;48.010;11.326;2022-07-30T06:24:45;18.80;99.90
21298;DHT22;10808;48.010;11.326;2022-07-30T06:27:11;18.90;99.90
21298;DHT22;10808;48.010;11.326;2022-07-30T06:29:37;18.90;99.90
21298;DHT22;10808;48.010;11.326;2022-07-30T06:32:03;19.00;99.90
21298;DHT22;10808;48.010;11.326;2022-07-30T06:34:29;19.00;99.90
21298;DHT22;10808;48.010;11.326;2022-07-30T06:36:55;19.00;99.90
21298;DHT22;10808;48.010;11.326;2022-07-30T06:39:21;19.00;99.90
21298;DHT22;10808;48.010;11.326;2022-07-30T06:41:47;19.10;99.90
21298;DHT22;10808;48.010;11.326;2022-07-30T06:44:14;19.20;99.90
21298;DHT22;10808;48.010;11.326;2022-07-30T06:46:40;19.30;99.90
21298;DHT22;10808;48.010;11.326;2022-07-30T06:49:06;19.40;99.90
21298;DHT22;10808;48.010;11.326;2022-07-30T06:51:32;19.60;99.90
21298;DHT22;10808;48.010;11.326;2022-07-30T06:53:58;19.70;99.90
21298;DHT22;10808;48.010;11.326;2022-07-30T06:56:24;19.90;99.90
21298;DHT22;10808;48.010;11.326;2022-07-30T06:58:50;20.00;99.90
21298;DHT22;10808;48.010;11.326;2022-07-30T07:01:16;20.10;99.90
21298;DHT22;10808;48.010;11.326;2022-07-30T07:03:42;20.20;99.90
21298;DHT22;10808;48.010;11.326;2022-07-30T07:06:08;20.20;99.90
21298;DHT22;10808;48.010;11.326;2022-07-30T07:08:37;20.20;99.90
21298;DHT22;10808;48.010;11.326;2022-07-30T07:11:03;20.20;99.90
21298;DHT22;10808;48.010;11.326;2022-07-30T07:13:29;20.30;99.90
21298;DHT22;10808;48.010;11.326;2022-07-30T07:15:56;20.40;99.90
21298;DHT22;10808;48.010;11.326;2022-07-30T07:18:22;20.60;99.90
21298;DHT22;10808;48.010;11.326;2022-07-30T07:20:48;20.70;99.90
21298;DHT22;10808;48.010;11.326;2022-07-30T07:23:14;20.90;99.90
21298;DHT22;10808;48.010;11.326;2022-07-30T07:25:40;21.10;99.90
21298;DHT22;10808;48.010;11.326;2022-07-30T07:28:07;21.30;99.90
21298;DHT22;10808;48.010;11.326;2022-07-30T07:30:33;21.40;99.90
21298;DHT22;10808;48.010;11.326;2022-07-30T07:32:59;21.50;99.90
21298;DHT22;10808;48.010;11.326;2022-07-30T07:35:25;21.50;99.90
21298;DHT22;10808;48.010;11.326;2022-07-30T07:37:51;21.60;99.90
21298;DHT22;10808;48.010;11.326;2022-07-30T07:40:17;21.70;99.90
21298;DHT22;10808;48.010;11.326;2022-07-30T07:42:43;21.90;99.90
21298;DHT22;10808;48.010;11.326;2022-07-30T07:45:09;22.10;99.90
21298;DHT22;10808;48.010;11.326;2022-07-30T07:47:46;22.00;99.90
21298;DHT22;10808;48.010;11.326;2022-07-30T07:50:17;22.10;99.90
21298;DHT22;10808;48.010;11.326;2022-07-30T07:52:43;22.20;99.90
21298;DHT22;10808;48.010;11.326;2022-07-30T07:55:09;22.30;99.90
21298;DHT22;10808;48.010;11.326;2022-07-30T07:57:42;22.40;99.90
21298;DHT22;10808;48.010;11.326;2022-07-30T08:00:11;22.50;99.90
21298;DHT22;10808;48.010;11.326;2022-07-30T08:02:37;22.60;99.90
21298;DHT22;10808;48.010;11.326;2022-07-30T08:05:04;22.90;99.90
21298;DHT22;10808;48.010;11.326;2022-07-30T08:07:31;23.00;99.90
21298;DHT22;10808;48.010;11.326;2022-07-30T08:09:57;23.10;99.90
21298;DHT22;10808;48.010;11.326;2022-07-30T08:12:23;23.30;99.90
21298;DHT22;10808;48.010;11.326;2022-07-30T08:14:49;23.30;99.90
21298;DHT22;10808;48.010;11.326;2022-07-30T08:17:15;23.50;99.90
21298;DHT22;10808;48.010;11.326;2022-07-30T08:19:41;23.80;99.90
21298;DHT22;10808;48.010;11.326;2022-07-30T08:22:07;24.00;99.90
21298;DHT22;10808;48.010;11.326;2022-07-30T08:24:33;24.20;99.90
21298;DHT22;10808;48.010;11.326;2022-07-30T08:26:59;24.10;99.90
21298;DHT22;10808;48.010;11.326;2022-07-30T08:29:25;24.20;99.90
21298;DHT22;10808;48.010;11.326;2022-07-30T08:31:51;24.30;99.90
21298;DHT22;10808;48.010;11.326;2022-07-30T08:34:17;24.20;99.90
21298;DHT22;10808;48.010;11.326;2022-07-30T08:36:45;24.20;99.90
21298;DHT22;10808;48.010;11.326;2022-07-30T08:39:11;24.40;99.90
21298;DHT22;10808;48.010;11.326;2022-07-30T08:41:37;24.60;99.90
21298;DHT22;10808;48.010;11.326;2022-07-30T08:44:10;24.80;99.90
21298;DHT22;10808;48.010;11.326;2022-07-30T08:46:40;24.80;99.90
21298;DHT22;10808;48.010;11.326;2022-07-30T08:49:08;24.80;99.90
21298;DHT22;10808;48.010;11.326;2022-07-30T08:51:36;25.00;99.90
21298;DHT22;10808;48.010;11.326;2022-07-30T08:54:03;25.30;99.90
21298;DHT22;10808;48.010;11.326;2022-07-30T08:56:31;25.30;99.90
21298;DHT22;10808;48.010;11.326;2022-07-30T08:58:59;25.40;99.90
21298;DHT22;10808;48.010;11.326;2022-07-30T09:01:25;25.50;99.50
21298;DHT22;10808;48.010;11.326;2022-07-30T09:03:51;25.70;98.50
21298;DHT22;10808;48.010;11.326;2022-07-30T09:06:17;25.70;97.20
21298;DHT22;10808;48.010;11.326;2022-07-30T09:08:44;25.70;97.30
21298;DHT22;10808;48.010;11.326;2022-07-30T09:11:10;25.80;97.50
21298;DHT22;10808;48.010;11.326;2022-07-30T09:13:38;25.90;97.30
21298;DHT22;10808;48.010;11.326;2022-07-30T09:16:07;25.90;97.00
21298;DHT22;10808;48.010;11.326;2022-07-30T09:18:42;25.90;96.60
21298;DHT22;10808;48.010;11.326;2022-07-30T09:21:25;26.10;95.40
21298;DHT22;10808;48.010;11.326;2022-07-30T09:24:01;26.20;95.80
21298;DHT22;10808;48.010;11.326;2022-07-30T09:26:29;26.20;95.40
21298;DHT22;10808;48.010;11.326;2022-07-30T09:29:14;26.10;96.30
21298;DHT22;10808;48.010;11.326;2022-07-30T09:31:58;26.10;95.60
21298;DHT22;10808;48.010;11.326;2022-07-30T09:34:29;26.00;95.30
21298;DHT22;10808;48.010;11.326;2022-07-30T09:36:57;26.20;95.40
21298;DHT22;10808;48.010;11.326;2022-07-30T09:39:31;26.20;94.80
21298;DHT22;10808;48.010;11.326;2022-07-30T09:41:57;26.50;95.20
21298;DHT22;10808;48.010;11.326;2022-07-30T09:44:25;26.80;94.80
21298;DHT22;10808;48.010;11.326;2022-07-30T09:46:52;26.80;94.30
21298;DHT22;10808;48.010;11.326;2022-07-30T09:49:21;27.00;93.90
21298;DHT22;10808;48.010;11.326;2022-07-30T09:51:47;27.20;93.80
21298;DHT22;10808;48.010;11.326;2022-07-30T09:54:14;27.20;93.50
21298;DHT22;10808;48.010;11.326;2022-07-30T09:56:40;27.10;92.30
21298;DHT22;10808;48.010;11.326;2022-07-30T09:59:28;27.10;92.60
21298;DHT22;10808;48.010;11.326;2022-07-30T10:01:56;26.80;92.60
21298;DHT22;10808;48.010;11.326;2022-07-30T10:04:26;26.60;93.30
21298;DHT22;10808;48.010;11.326;2022-07-30T10:06:53;26.50;92.90
21298;DHT22;10808;48.010;11.326;2022-07-30T10:09:29;26.60;93.00
21298;DHT22;10808;48.010;11.326;2022-07-30T10:11:58;26.70;92.60
21298;DHT22;10808;48.010;11.326;2022-07-30T10:14:28;26.90;92.50
21298;DHT22;10808;48.010;11.326;2022-07-30T10:16:55;27.20;92.90
21298;DHT22;10808;48.010;11.326;2022-07-30T10:19:21;27.20;93.00
21298;DHT22;10808;48.010;11.326;2022-07-30T10:21:49;27.40;91.40
21298;DHT22;10808;48.010;11.326;2022-07-30T10:24:23;27.60;90.30
21298;DHT22;10808;48.010;11.326;2022-07-30T10:26:52;27.60;90.30
21298;DHT22;10808;48.010;11.326;2022-07-30T10:29:20;27.60;90.40
21298;DHT22;10808;48.010;11.326;2022-07-30T10:31:50;27.80;90.20
21298;DHT22;10808;48.010;11.326;2022-07-30T10:34:18;27.80;90.20
21298;DHT22;10808;48.010;11.326;2022-07-30T10:36:56;28.00;88.70
21298;DHT22;10808;48.010;11.326;2022-07-30T10:39:28;28.10;88.80
21298;DHT22;10808;48.010;11.326;2022-07-30T10:47:19;28.70;84.90
21298;DHT22;10808;48.010;11.326;2022-07-30T10:52:53;28.70;83.00
21298;DHT22;10808;48.010;11.326;2022-07-30T10:55:30;28.50;83.00
21298;DHT22;10808;48.010;11.326;2022-07-30T10:58:07;28.20;83.00
21298;DHT22;10808;48.010;11.326;2022-07-30T11:00:35;28.00;84.30
21298;DHT22;10808;48.010;11.326;2022-07-30T11:03:21;28.00;83.50
21298;DHT22;10808;48.010;11.326;2022-07-30T11:05:50;28.00;83.70
21298;DHT22;10808;48.010;11.326;2022-07-30T11:08:33;27.90;83.20
21298;DHT22;10808;48.010;11.326;2022-07-30T11:11:00;27.70;84.80
21298;DHT22;10808;48.010;11.326;2022-07-30T11:13:49;27.70;84.40
21298;DHT22;10808;48.010;11.326;2022-07-30T11:16:56;27.60;82.90
21298;DHT22;10808;48.010;11.326;2022-07-30T11:19:14;27.80;82.70
21298;DHT22;10808;48.010;11.326;2022-07-30T11:21:46;27.90;80.60
21298;DHT22;10808;48.010;11.326;2022-07-30T11:24:43;27.90;81.20
21298;DHT22;10808;48.010;11.326;2022-07-30T11:27:16;28.00;81.30
21298;DHT22;10808;48.010;11.326;2022-07-30T11:29:56;27.90;81.60
21298;DHT22;10808;48.010;11.326;2022-07-30T11:32:26;28.20;83.20
21298;DHT22;10808;48.010;11.326;2022-07-30T11:35:14;28.30;80.50
21298;DHT22;10808;48.010;11.326;2022-07-30T11:38:05;28.60;80.10
21298;DHT22;10808;48.010;11.326;2022-07-30T11:43:26;28.30;77.00
21298;DHT22;10808;48.010;11.326;2022-07-30T11:46:18;27.70;78.70
21298;DHT22;10808;48.010;11.326;2022-07-30T11:48:55;27.40;80.00
21298;DHT22;10808;48.010;11.326;2022-07-30T11:51:22;27.30;81.20
21298;DHT22;10808;48.010;11.326;2022-07-30T11:54:02;27.30;81.50
21298;DHT22;10808;48.010;11.326;2022-07-30T11:56:29;27.40;81.50
21298;DHT22;10808;48.010;11.326;2022-07-30T11:59:03;27.50;82.10
21298;DHT22;10808;48.010;11.326;2022-07-30T12:01:30;27.60;81.90
21298;DHT22;10808;48.010;11.326;2022-07-30T12:03:56;27.60;81.60
21298;DHT22;10808;48.010;11.326;2022-07-30T12:06:22;27.40;82.30
21298;DHT22;10808;48.010;11.326;2022-07-30T12:08:50;27.10;81.50
21298;DHT22;10808;48.010;11.326;2022-07-30T12:11:17;27.00;82.80
21298;DHT22;10808;48.010;11.326;2022-07-30T12:13:54;26.90;82.30
21298;DHT22;10808;48.010;11.326;2022-07-30T12:16:20;26.80;83.70
21298;DHT22;10808;48.010;11.326;2022-07-30T12:18:47;26.80;84.00
21298;DHT22;10808;48.010;11.326;2022-07-30T12:21:13;26.90;85.50
21298;DHT22;10808;48.010;11.326;2022-07-30T12:23:54;27.10;83.70
21298;DHT22;10808;48.010;11.326;2022-07-30T12:26:22;27.00;81.40
21298;DHT22;10808;48.010;11.326;2022-07-30T12:28:49;27.00;83.10
21298;DHT22;10808;48.010;11.326;2022-07-30T12:31:16;27.20;83.00
21298;DHT22;10808;48.010;11.326;2022-07-30T12:33:42;27.50;81.60
21298;DHT22;10808;48.010;11.326;2022-07-30T12:36:08;27.90;82.50
21298;DHT22;10808;48.010;11.326;2022-07-30T12:38:45;28.00;78.50
21298;DHT22;10808;48.010;11.326;2022-07-30T12:41:16;28.10;78.60
21298;DHT22;10808;48.010;11.326;2022-07-30T12:43:51;28.20;77.10
21298;DHT22;10808;48.010;11.326;2022-07-30T12:46:23;28.10;75.60
21298;DHT22;10808;48.010;11.326;2022-07-30T12:51:17;28.40;77.30
21298;DHT22;10808;48.010;11.326;2022-07-30T12:53:43;28.60;77.70
21298;DHT22;10808;48.010;11.326;2022-07-30T12:56:13;28.70;76.00
21298;DHT22;10808;48.010;11.326;2022-07-30T12:58:39;28.80;75.80
21298;DHT22;10808;48.010;11.326;2022-07-30T13:01:06;28.80;76.00
21298;DHT22;10808;48.010;11.326;2022-07-30T13:03:33;29.20;75.20
21298;DHT22;10808;48.010;11.326;2022-07-30T13:06:17;29.30;75.30
21298;DHT22;10808;48.010;11.326;2022-07-30T13:09:04;29.60;75.30
21298;DHT22;10808;48.010;11.326;2022-07-30T13:11:40;29.40;70.20
21298;DHT22;10808;48.010;11.326;2022-07-30T13:14:07;29.40;71.60
21298;DHT22;10808;48.010;11.326;2022-07-30T13:16:35;29.50;70.70
21298;DHT22;10808;48.010;11.326;2022-07-30T13:19:09;29.50;70.40
21298;DHT22;10808;48.010;11.326;2022-07-30T13:21:36;29.30;69.80
21298;DHT22;10808;48.010;11.326;2022-07-30T13:24:03;29.30;70.30
21298;DHT22;10808;48.010;11.326;2022-07-30T13:26:29;29.10;70.50
21298;DHT22;10808;48.010;11.326;2022-07-30T13:28:56;28.60;71.30
21298;DHT22;10808;48.010;11.326;2022-07-30T13:31:23;28.10;71.60
21298;DHT22;10808;48.010;11.326;2022-07-30T13:33:50;28.20;72.20
21298;DHT22;10808;48.010;11.326;2022-07-30T13:36:16;28.40;71.20
21298;DHT22;10808;48.010;11.326;2022-07-30T13:38:43;28.60;72.60
21298;DHT22;10808;48.010;11.326;2022-07-30T13:41:10;28.80;71.00
21298;DHT22;10808;48.010;11.326;2022-07-30T13:43:36;29.00;71.00
21298;DHT22;10808;48.010;11.326;2022-07-30T13:46:03;29.20;71.60
21298;DHT22;10808;48.010;11.326;2022-07-30T13:48:30;29.30;70.70
21298;DHT22;10808;48.010;11.326;2022-07-30T13:50:56;29.40;71.00
21298;DHT22;10808;48.010;11.326;2022-07-30T13:53:22;29.60;72.40
21298;DHT22;10808;48.010;11.326;2022-07-30T13:55:48;29.80;70.60
21298;DHT22;10808;48.010;11.326;2022-07-30T13:58:14;29.40;70.80
21298;DHT22;10808;48.010;11.326;2022-07-30T14:00:40;29.20;71.10
21298;DHT22;10808;48.010;11.326;2022-07-30T14:03:11;29.40;73.10
21298;DHT22;10808;48.010;11.326;2022-07-30T14:05:37;29.80;72.00
21298;DHT22;10808;48.010;11.326;2022-07-30T14:08:05;30.00;70.80
21298;DHT22;10808;48.010;11.326;2022-07-30T14:10:33;30.00;70.10
21298;DHT22;10808;48.010;11.326;2022-07-30T14:13:00;29.60;69.60
21298;DHT22;10808;48.010;11.326;2022-07-30T14:15:27;29.30;70.60
21298;DHT22;10808;48.010;11.326;2022-07-30T14:17:56;29.50;72.00
21298;DHT22;10808;48.010;11.326;2022-07-30T14:20:22;29.70;71.70
21298;DHT22;10808;48.010;11.326;2022-07-30T14:22:49;30.20;72.50
21298;DHT22;10808;48.010;11.326;2022-07-30T14:25:15;30.40;71.80
21298;DHT22;10808;48.010;11.326;2022-07-30T14:27:41;30.50;68.70
21298;DHT22;10808;48.010;11.326;2022-07-30T14:30:08;30.00;70.20
21298;DHT22;10808;48.010;11.326;2022-07-30T14:32:36;30.00;69.70
21298;DHT22;10808;48.010;11.326;2022-07-30T14:35:03;30.00;70.10
21298;DHT22;10808;48.010;11.326;2022-07-30T14:37:29;30.00;71.20
21298;DHT22;10808;48.010;11.326;2022-07-30T14:39:55;30.10;70.70
21298;DHT22;10808;48.010;11.326;2022-07-30T14:42:21;30.20;68.70
21298;DHT22;10808;48.010;11.326;2022-07-30T14:44:50;30.30;69.30
21298;DHT22;10808;48.010;11.326;2022-07-30T14:47:16;30.00;67.60
21298;DHT22;10808;48.010;11.326;2022-07-30T14:49:42;29.90;68.20
21298;DHT22;10808;48.010;11.326;2022-07-30T14:52:08;29.80;67.40
21298;DHT22;10808;48.010;11.326;2022-07-30T14:54:34;29.50;67.50
21298;DHT22;10808;48.010;11.326;2022-07-30T14:57:00;29.30;68.00
21298;DHT22;10808;48.010;11.326;2022-07-30T14:59:27;29.40;68.90
21298;DHT22;10808;48.010;11.326;2022-07-30T15:01:53;29.50;69.30
21298;DHT22;10808;48.010;11.326;2022-07-30T15:04:20;29.70;70.80
21298;DHT22;10808;48.010;11.326;2022-07-30T15:06:46;29.90;69.70
21298;DHT22;10808;48.010;11.326;2022-07-30T15:09:12;30.00;67.20
21298;DHT22;10808;48.010;11.326;2022-07-30T15:11:38;30.00;68.40
21298;DHT22;10808;48.010;11.326;2022-07-30T15:14:05;29.60;68.00
21298;DHT22;10808;48.010;11.326;2022-07-30T15:16:31;29.50;68.10
21298;DHT22;10808;48.010;11.326;2022-07-30T15:18:57;29.40;68.20
21298;DHT22;10808;48.010;11.326;2022-07-30T15:21:23;29.40;67.90
21298;DHT22;10808;48.010;11.326;2022-07-30T15:23:49;29.40;66.70
21298;DHT22;10808;48.010;11.326;2022-07-30T15:26:15;29.40;67.70
21298;DHT22;10808;48.010;11.326;2022-07-30T15:28:41;29.40;67.70
21298;DHT22;10808;48.010;11.326;2022-07-30T15:31:07;29.30;67.40
21298;DHT22;10808;48.010;11.326;2022-07-30T15:33:33;29.20;68.00
21298;DHT22;10808;48.010;11.326;2022-07-30T15:36:02;29.00;68.50
21298;DHT22;10808;48.010;11.326;2022-07-30T15:38:28;28.70;68.70
21298;DHT22;10808;48.010;11.326;2022-07-30T15:40:54;28.50;68.70